createdAt,value
2019-01-26T00:00:40.376Z,36.80
2019-01-26T00:01:38.963Z,26.23
2019-01-26T00:01:40.404Z,36.70
2019-01-26T00:02:41.118Z,35.90
2019-01-26T00:03:40.407Z,34.80
2019-01-26T00:04:06.622Z,25.27
2019-01-26T00:04:40.425Z,35.60
2019-01-26T00:05:40.438Z,34.00
2019-01-26T00:06:34.237Z,24.10
2019-01-26T00:06:40.520Z,34.70
2019-01-26T00:07:40.464Z,34.90
2019-01-26T00:08:40.491Z,37.20
2019-01-26T00:09:02.443Z,26.73
2019-01-26T00:09:40.543Z,35.70
2019-01-26T00:10:40.513Z,36.60
2019-01-26T00:11:30.927Z,25.87
2019-01-26T00:11:40.519Z,39.00
2019-01-26T00:12:40.588Z,40.20
2019-01-26T00:13:40.589Z,39.80
2019-01-26T00:13:58.647Z,25.03
2019-01-26T00:14:40.560Z,38.90
2019-01-26T00:15:40.623Z,39.20
2019-01-26T00:16:26.497Z,26.60
2019-01-26T00:16:40.588Z,35.60
2019-01-26T00:17:40.605Z,35.50
2019-01-26T00:18:40.646Z,36.60
2019-01-26T00:18:54.125Z,26.43
2019-01-26T00:19:40.715Z,38.00
2019-01-26T00:20:40.646Z,37.00
2019-01-26T00:21:21.920Z,30.23
2019-01-26T00:21:40.704Z,41.60
2019-01-26T00:22:40.701Z,41.30
2019-01-26T00:23:40.688Z,41.70
2019-01-26T00:23:49.899Z,29.57
2019-01-26T00:24:40.735Z,42.50
2019-01-26T00:25:40.713Z,41.00
2019-01-26T00:26:17.792Z,27.80
2019-01-26T00:26:40.743Z,38.70
2019-01-26T00:27:40.740Z,41.80
2019-01-26T00:28:40.771Z,38.00
2019-01-26T00:28:45.937Z,28.90
2019-01-26T00:29:40.771Z,41.50
2019-01-26T00:30:40.779Z,40.30
2019-01-26T00:31:13.681Z,29.07
2019-01-26T00:31:40.795Z,40.50
2019-01-26T00:32:40.892Z,41.30
2019-01-26T00:33:43.266Z,24.83
2019-01-26T00:33:43.323Z,39.10
2019-01-26T00:34:40.852Z,42.20
2019-01-26T00:35:40.850Z,39.70
2019-01-26T00:36:11.690Z,26.43
2019-01-26T00:36:40.869Z,39.60
2019-01-26T00:37:40.881Z,39.70
2019-01-26T00:38:39.839Z,30.63
2019-01-26T00:38:40.900Z,40.90
2019-01-26T00:39:40.922Z,42.10
2019-01-26T00:40:40.917Z,43.00
2019-01-26T00:41:07.867Z,27.10
2019-01-26T00:41:40.955Z,40.60
2019-01-26T00:42:40.958Z,39.10
2019-01-26T00:43:35.491Z,29.80
2019-01-26T00:43:40.962Z,36.90
2019-01-26T00:44:41.020Z,41.80
2019-01-26T00:45:40.995Z,41.50
2019-01-26T00:46:03.769Z,31.77
2019-01-26T00:46:41.000Z,37.20
2019-01-26T00:47:41.024Z,39.60
2019-01-26T00:48:31.713Z,26.40
2019-01-26T00:48:41.040Z,34.90
2019-01-26T00:49:41.042Z,38.10
2019-01-26T00:50:41.102Z,41.40
2019-01-26T00:51:00.099Z,29.33
2019-01-26T00:51:41.093Z,38.10
2019-01-26T00:52:41.098Z,36.90
2019-01-26T00:53:28.387Z,25.30
2019-01-26T00:53:41.103Z,38.60
2019-01-26T00:54:41.133Z,40.20
2019-01-26T00:55:41.175Z,39.60
2019-01-26T00:55:56.565Z,26.47
2019-01-26T00:56:41.163Z,37.90
2019-01-26T00:57:41.154Z,38.40
2019-01-26T00:58:24.713Z,23.33
2019-01-26T00:58:41.183Z,36.20
2019-01-26T00:59:41.292Z,42.90
2019-01-26T01:00:41.207Z,41.70
2019-01-26T01:00:52.882Z,23.90
2019-01-26T01:01:41.212Z,40.60
2019-01-26T01:02:41.253Z,37.60
2019-01-26T01:03:21.030Z,24.77
2019-01-26T01:03:41.291Z,37.20
2019-01-26T01:04:41.258Z,38.60
2019-01-26T01:05:41.296Z,37.90
2019-01-26T01:05:48.981Z,26.97
2019-01-26T01:06:41.283Z,36.60
2019-01-26T01:07:41.440Z,41.80
2019-01-26T01:08:16.992Z,23.23
2019-01-26T01:08:41.318Z,39.90
2019-01-26T01:09:41.350Z,36.70
2019-01-26T01:10:41.339Z,36.60
2019-01-26T01:10:45.055Z,25.37
2019-01-26T01:11:41.455Z,39.40
2019-01-26T01:12:41.388Z,40.30
2019-01-26T01:13:13.052Z,27.10
2019-01-26T01:13:41.380Z,37.80
2019-01-26T01:14:41.406Z,40.00
2019-01-26T01:15:41.015Z,29.57
2019-01-26T01:15:41.478Z,39.50
2019-01-26T01:16:41.429Z,40.20
2019-01-26T01:17:41.430Z,43.30
2019-01-26T01:18:08.881Z,30.93
2019-01-26T01:18:41.453Z,36.20
2019-01-26T01:19:41.475Z,36.50
2019-01-26T01:20:36.668Z,26.27
2019-01-26T01:20:41.499Z,38.40
2019-01-26T01:21:41.511Z,40.20
2019-01-26T01:22:41.499Z,42.40
2019-01-26T01:23:04.795Z,30.10
2019-01-26T01:23:41.546Z,43.00
2019-01-26T01:24:41.538Z,44.20
2019-01-26T01:25:32.559Z,26.87
2019-01-26T01:25:41.548Z,39.30
2019-01-26T01:26:41.574Z,37.10
2019-01-26T01:27:41.606Z,36.80
2019-01-26T01:28:00.372Z,25.57
2019-01-26T01:28:41.589Z,35.50
2019-01-26T01:29:41.612Z,36.90
2019-01-26T01:30:28.084Z,25.30
2019-01-26T01:30:41.637Z,39.50
2019-01-26T01:31:41.637Z,39.10
2019-01-26T01:32:41.657Z,39.70
2019-01-26T01:32:55.842Z,27.47
2019-01-26T01:33:41.675Z,38.60
2019-01-26T01:34:41.707Z,33.90
2019-01-26T01:35:23.554Z,27.10
2019-01-26T01:35:41.680Z,36.90
2019-01-26T01:36:41.709Z,39.00
2019-01-26T01:37:41.721Z,34.90
2019-01-26T01:37:51.821Z,22.93
2019-01-26T01:38:41.740Z,34.90
2019-01-26T01:39:41.762Z,35.30
2019-01-26T01:40:19.547Z,26.30
2019-01-26T01:40:41.750Z,33.70
2019-01-26T01:41:41.767Z,35.30
2019-01-26T01:42:41.790Z,34.40
2019-01-26T01:42:47.233Z,22.17
2019-01-26T01:43:41.791Z,34.60
2019-01-26T01:44:41.814Z,32.60
2019-01-26T01:45:16.141Z,24.30
2019-01-26T01:45:41.842Z,33.70
2019-01-26T01:46:42.951Z,32.80
2019-01-26T01:47:41.917Z,29.60
2019-01-26T01:47:44.046Z,26.50
2019-01-26T01:48:41.861Z,36.20
2019-01-26T01:49:41.888Z,32.10
2019-01-26T01:50:11.949Z,23.53
2019-01-26T01:50:41.898Z,31.60
2019-01-26T01:51:41.906Z,32.20
2019-01-26T01:52:40.254Z,27.47
2019-01-26T01:52:42.000Z,34.30
2019-01-26T01:53:41.960Z,33.20
2019-01-26T01:54:41.955Z,32.50
2019-01-26T01:55:08.582Z,24.80
2019-01-26T01:55:41.979Z,33.60
2019-01-26T01:56:41.994Z,32.80
2019-01-26T01:57:39.209Z,21.70
2019-01-26T01:57:41.997Z,33.50
2019-01-26T01:58:42.002Z,37.50
2019-01-26T01:59:42.025Z,36.40
2019-01-26T02:00:11.687Z,24.70
2019-01-26T02:00:42.036Z,35.30
2019-01-26T02:01:42.046Z,40.70
2019-01-26T02:02:39.757Z,22.67
2019-01-26T02:02:42.061Z,35.40
2019-01-26T02:03:42.086Z,36.20
2019-01-26T02:04:42.149Z,32.50
2019-01-26T02:05:07.536Z,20.93
2019-01-26T02:05:42.112Z,36.30
2019-01-26T02:06:42.278Z,31.40
2019-01-26T02:07:35.891Z,23.80
2019-01-26T02:07:42.148Z,31.90
2019-01-26T02:08:42.162Z,28.90
2019-01-26T02:09:42.169Z,27.40
2019-01-26T02:10:04.574Z,24.83
2019-01-26T02:10:42.226Z,29.30
2019-01-26T02:11:42.187Z,31.40
2019-01-26T02:12:32.476Z,20.70
2019-01-26T02:12:42.217Z,32.70
2019-01-26T02:13:42.250Z,29.80
2019-01-26T02:14:42.245Z,30.50
2019-01-26T02:15:00.232Z,21.23
2019-01-26T02:15:42.359Z,27.00
2019-01-26T02:16:42.268Z,26.70
2019-01-26T02:17:27.975Z,24.10
2019-01-26T02:17:42.287Z,31.20
2019-01-26T02:18:42.287Z,30.50
2019-01-26T02:19:42.485Z,32.30
2019-01-26T02:19:55.862Z,23.10
2019-01-26T02:20:42.327Z,31.40
2019-01-26T02:21:42.342Z,30.00
2019-01-26T02:22:23.722Z,20.33
2019-01-26T02:22:42.353Z,26.80
2019-01-26T02:23:42.364Z,25.60
2019-01-26T02:24:42.404Z,25.70
2019-01-26T02:24:51.236Z,21.27
2019-01-26T02:25:42.404Z,27.40
2019-01-26T02:26:42.400Z,23.50
2019-01-26T02:27:19.132Z,22.97
2019-01-26T02:27:42.412Z,26.00
2019-01-26T02:28:42.509Z,26.20
2019-01-26T02:29:42.479Z,25.30
2019-01-26T02:29:47.492Z,22.97
2019-01-26T02:30:42.459Z,29.20
2019-01-26T02:31:42.500Z,30.70
2019-01-26T02:32:15.681Z,22.63
2019-01-26T02:32:42.500Z,25.80
2019-01-26T02:33:42.512Z,32.40
2019-01-26T02:34:42.526Z,31.00
2019-01-26T02:34:43.381Z,24.40
2019-01-26T02:35:42.547Z,31.30
2019-01-26T02:36:42.544Z,29.10
2019-01-26T02:37:11.517Z,22.47
2019-01-26T02:37:42.561Z,27.50
2019-01-26T02:38:42.569Z,30.20
2019-01-26T02:39:39.581Z,22.60
2019-01-26T02:39:42.632Z,27.40
2019-01-26T02:40:42.671Z,27.00
2019-01-26T02:41:42.636Z,30.70
2019-01-26T02:42:07.749Z,20.53
2019-01-26T02:42:42.655Z,26.80
2019-01-26T02:43:42.649Z,25.80
2019-01-26T02:44:35.251Z,22.77
2019-01-26T02:44:42.662Z,27.10
2019-01-26T02:45:42.691Z,28.30
2019-01-26T02:46:42.686Z,28.80
2019-01-26T02:47:03.506Z,20.40
2019-01-26T02:47:42.706Z,28.20
2019-01-26T02:48:42.713Z,29.30
2019-01-26T02:49:31.055Z,20.73
2019-01-26T02:49:42.780Z,26.50
2019-01-26T02:50:42.760Z,26.10
2019-01-26T02:51:42.813Z,27.70
2019-01-26T02:51:59.169Z,23.50
2019-01-26T02:52:42.768Z,29.50
2019-01-26T02:53:42.845Z,28.70
2019-01-26T02:54:27.069Z,21.03
2019-01-26T02:54:42.794Z,31.00
2019-01-26T02:55:42.817Z,28.50
2019-01-26T02:56:42.842Z,26.80
2019-01-26T02:56:54.976Z,19.23
2019-01-26T02:57:42.861Z,29.10
2019-01-26T02:58:42.869Z,28.70
2019-01-26T02:59:23.211Z,20.33
2019-01-26T02:59:42.899Z,27.70
2019-01-26T03:00:42.881Z,27.70
2019-01-26T03:01:42.914Z,26.20
2019-01-26T03:01:51.384Z,22.70
2019-01-26T03:02:42.936Z,28.20
2019-01-26T03:03:42.939Z,24.60
2019-01-26T03:04:19.450Z,20.87
2019-01-26T03:04:42.950Z,23.70
2019-01-26T03:05:42.959Z,26.00
2019-01-26T03:06:42.984Z,22.90
2019-01-26T03:06:47.547Z,19.33
2019-01-26T03:07:42.988Z,31.00
2019-01-26T03:08:43.048Z,25.20
2019-01-26T03:09:15.698Z,22.43
2019-01-26T03:09:43.032Z,25.60
2019-01-26T03:10:43.024Z,28.50
2019-01-26T03:11:43.076Z,25.80
2019-01-26T03:11:43.732Z,21.03
2019-01-26T03:12:43.058Z,23.30
2019-01-26T03:13:43.071Z,27.30
2019-01-26T03:14:11.422Z,20.87
2019-01-26T03:14:43.091Z,23.40
2019-01-26T03:15:43.108Z,23.90
2019-01-26T03:16:39.089Z,23.80
2019-01-26T03:16:43.115Z,25.70
2019-01-26T03:17:43.128Z,24.60
2019-01-26T03:18:43.142Z,22.90
2019-01-26T03:19:06.905Z,23.33
2019-01-26T03:19:43.158Z,23.20
2019-01-26T03:20:43.166Z,27.30
2019-01-26T03:21:35.017Z,22.57
2019-01-26T03:21:43.191Z,22.40
2019-01-26T03:22:43.245Z,24.30
2019-01-26T03:23:43.207Z,25.30
2019-01-26T03:24:02.886Z,22.13
2019-01-26T03:24:43.229Z,27.10
2019-01-26T03:25:43.281Z,27.50
2019-01-26T03:26:30.645Z,21.43
2019-01-26T03:26:43.259Z,26.80
2019-01-26T03:27:43.266Z,32.50
2019-01-26T03:28:43.286Z,25.70
2019-01-26T03:28:59.066Z,21.27
2019-01-26T03:29:43.308Z,22.90
2019-01-26T03:30:43.323Z,23.50
2019-01-26T03:31:27.222Z,21.20
2019-01-26T03:31:43.371Z,21.30
2019-01-26T03:32:43.344Z,24.50
2019-01-26T03:33:43.359Z,26.00
2019-01-26T03:33:55.084Z,20.23
2019-01-26T03:34:43.376Z,23.70
2019-01-26T03:35:43.381Z,24.10
2019-01-26T03:36:23.381Z,24.00
2019-01-26T03:36:43.397Z,25.30
2019-01-26T03:37:43.409Z,21.30
2019-01-26T03:38:43.555Z,24.00
2019-01-26T03:38:51.408Z,20.10
2019-01-26T03:39:43.437Z,24.90
2019-01-26T03:40:43.458Z,24.60
2019-01-26T03:41:19.071Z,21.90
2019-01-26T03:41:43.490Z,22.30
2019-01-26T03:42:43.522Z,22.60
2019-01-26T03:43:43.555Z,23.50
2019-01-26T03:43:46.879Z,20.30
2019-01-26T03:44:43.531Z,21.50
2019-01-26T03:45:43.525Z,20.70
2019-01-26T03:46:14.495Z,21.53
2019-01-26T03:46:43.536Z,24.40
2019-01-26T03:47:43.551Z,24.60
2019-01-26T03:48:42.361Z,19.60
2019-01-26T03:48:43.639Z,23.60
2019-01-26T03:49:43.582Z,21.20
2019-01-26T03:50:43.622Z,22.10
2019-01-26T03:51:10.224Z,20.07
2019-01-26T03:51:43.624Z,22.50
2019-01-26T03:52:43.631Z,20.70
2019-01-26T03:53:38.189Z,21.30
2019-01-26T03:53:43.666Z,22.60
2019-01-26T03:54:43.665Z,22.00
2019-01-26T03:55:43.672Z,21.70
2019-01-26T03:56:06.002Z,18.80
2019-01-26T03:56:43.688Z,21.10
2019-01-26T03:57:43.715Z,21.90
2019-01-26T03:58:33.939Z,19.13
2019-01-26T03:58:43.723Z,23.40
2019-01-26T03:59:43.734Z,22.60
2019-01-26T04:00:43.738Z,22.60
2019-01-26T04:01:01.731Z,21.57
2019-01-26T04:01:43.799Z,19.60
2019-01-26T04:02:43.770Z,18.90
2019-01-26T04:03:29.564Z,19.70
2019-01-26T04:03:43.794Z,21.40
2019-01-26T04:04:43.818Z,22.60
2019-01-26T04:05:43.823Z,22.30
2019-01-26T04:06:43.841Z,20.90
2019-01-26T04:07:43.841Z,20.20
2019-01-26T04:08:35.051Z,21.27
2019-01-26T04:08:43.878Z,21.60
2019-01-26T04:09:43.881Z,19.40
2019-01-26T04:10:43.908Z,23.20
2019-01-26T04:11:02.682Z,17.03
2019-01-26T04:11:43.909Z,19.90
2019-01-26T04:12:43.946Z,20.90
2019-01-26T04:13:30.743Z,19.03
2019-01-26T04:13:43.938Z,18.90
2019-01-26T04:14:43.965Z,19.60
2019-01-26T04:15:43.975Z,20.10
2019-01-26T04:16:00.751Z,21.10
2019-01-26T04:16:43.989Z,20.70
2019-01-26T04:17:43.996Z,18.40
2019-01-26T04:18:28.689Z,20.20
2019-01-26T04:18:44.024Z,21.30
2019-01-26T04:19:44.030Z,18.20
2019-01-26T04:20:44.042Z,17.60
2019-01-26T04:20:56.585Z,18.53
2019-01-26T04:21:44.077Z,19.80
2019-01-26T04:22:44.080Z,18.70
2019-01-26T04:23:24.530Z,16.43
2019-01-26T04:23:44.073Z,17.90
2019-01-26T04:24:44.087Z,17.50
2019-01-26T04:25:44.104Z,16.40
2019-01-26T04:25:52.835Z,18.47
2019-01-26T04:26:44.116Z,16.40
2019-01-26T04:27:44.130Z,18.30
2019-01-26T04:28:20.438Z,18.90
2019-01-26T04:28:44.147Z,18.40
2019-01-26T04:29:44.159Z,16.90
2019-01-26T04:30:44.206Z,17.10
2019-01-26T04:30:48.366Z,16.70
2019-01-26T04:31:44.198Z,19.00
2019-01-26T04:32:44.216Z,16.20
2019-01-26T04:33:15.987Z,17.47
2019-01-26T04:33:44.216Z,16.70
2019-01-26T04:34:44.235Z,15.30
2019-01-26T04:35:43.713Z,17.63
2019-01-26T04:35:44.245Z,15.10
2019-01-26T04:36:44.260Z,17.00
2019-01-26T04:37:44.276Z,15.00
2019-01-26T04:38:11.468Z,17.93
2019-01-26T04:38:44.318Z,14.80
2019-01-26T04:39:44.310Z,16.60
2019-01-26T04:40:39.607Z,16.50
2019-01-26T04:40:44.333Z,18.40
2019-01-26T04:41:44.355Z,16.10
2019-01-26T04:42:44.345Z,17.90
2019-01-26T04:43:07.257Z,18.83
2019-01-26T04:43:44.363Z,15.40
2019-01-26T04:44:44.412Z,18.70
2019-01-26T04:45:35.164Z,15.47
2019-01-26T04:45:44.394Z,17.60
2019-01-26T04:46:44.407Z,19.40
2019-01-26T04:47:44.423Z,18.00
2019-01-26T04:48:03.017Z,17.57
2019-01-26T04:48:44.444Z,21.50
2019-01-26T04:49:44.457Z,17.90
2019-01-26T04:50:30.763Z,20.30
2019-01-26T04:50:44.490Z,22.30
2019-01-26T04:51:44.475Z,22.30
2019-01-26T04:52:44.501Z,26.10
2019-01-26T04:52:58.524Z,17.87
2019-01-26T04:53:44.521Z,23.90
2019-01-26T04:54:44.525Z,22.50
2019-01-26T04:55:26.604Z,17.23
2019-01-26T04:55:44.533Z,24.70
2019-01-26T04:56:44.569Z,21.80
2019-01-26T04:57:44.637Z,21.00
2019-01-26T04:57:54.871Z,19.77
2019-01-26T04:58:44.586Z,21.80
2019-01-26T04:59:44.590Z,20.60
2019-01-26T05:00:24.819Z,18.50
2019-01-26T05:00:44.625Z,19.50
2019-01-26T05:01:44.627Z,20.10
2019-01-26T05:02:44.682Z,14.80
2019-01-26T05:02:52.753Z,16.47
2019-01-26T05:03:44.677Z,16.30
2019-01-26T05:04:44.737Z,16.50
2019-01-26T05:05:21.125Z,18.43
2019-01-26T05:05:44.689Z,19.20
2019-01-26T05:06:44.725Z,17.10
2019-01-26T05:07:44.711Z,17.60
2019-01-26T05:07:48.887Z,16.90
2019-01-26T05:08:44.726Z,17.00
2019-01-26T05:09:44.741Z,18.10
2019-01-26T05:10:17.063Z,17.80
2019-01-26T05:10:44.756Z,18.80
2019-01-26T05:11:44.781Z,20.00
2019-01-26T05:12:44.627Z,19.70
2019-01-26T05:12:44.802Z,21.30
2019-01-26T05:13:44.855Z,22.30
2019-01-26T05:14:44.847Z,17.10
2019-01-26T05:15:12.923Z,16.57
2019-01-26T05:15:44.867Z,17.60
2019-01-26T05:16:44.891Z,19.90
2019-01-26T05:17:40.945Z,17.17
2019-01-26T05:17:44.863Z,20.60
2019-01-26T05:18:44.947Z,18.30
2019-01-26T05:19:44.886Z,17.60
2019-01-26T05:20:10.890Z,16.37
2019-01-26T05:20:44.901Z,16.70
2019-01-26T05:21:44.920Z,20.90
2019-01-26T05:22:38.467Z,16.60
2019-01-26T05:22:44.945Z,17.90
2019-01-26T05:23:44.992Z,19.20
2019-01-26T05:24:45.029Z,18.90
2019-01-26T05:25:06.554Z,18.03
2019-01-26T05:25:44.983Z,22.80
2019-01-26T05:26:45.000Z,21.20
2019-01-26T05:27:34.506Z,20.87
2019-01-26T05:27:45.013Z,18.30
2019-01-26T05:28:45.182Z,19.30
2019-01-26T05:29:45.133Z,18.90
2019-01-26T05:30:24.450Z,19.03
2019-01-26T05:30:45.331Z,16.80
2019-01-26T05:31:45.066Z,18.80
2019-01-26T05:32:45.219Z,19.50
2019-01-26T05:32:52.946Z,20.57
2019-01-26T05:33:45.144Z,20.30
2019-01-26T05:34:45.133Z,22.80
2019-01-26T05:35:22.115Z,16.90
2019-01-26T05:35:45.288Z,20.50
2019-01-26T05:36:45.231Z,21.20
2019-01-26T05:37:45.145Z,23.00
2019-01-26T05:37:50.808Z,18.63
2019-01-26T05:38:45.197Z,21.30
2019-01-26T05:39:45.233Z,20.80
2019-01-26T05:40:19.163Z,17.87
2019-01-26T05:40:45.256Z,18.40
2019-01-26T05:41:45.224Z,23.50
2019-01-26T05:42:45.279Z,20.90
2019-01-26T05:42:47.531Z,21.63
2019-01-26T05:43:45.248Z,22.60
2019-01-26T05:44:45.278Z,24.30
2019-01-26T05:45:17.381Z,22.27
2019-01-26T05:45:45.272Z,26.30
2019-01-26T05:46:45.317Z,25.50
2019-01-26T05:47:49.039Z,23.60
2019-01-26T05:47:49.121Z,19.70
2019-01-26T05:48:45.309Z,22.50
2019-01-26T05:49:45.333Z,22.80
2019-01-26T05:50:20.796Z,19.30
2019-01-26T05:50:45.390Z,21.90
2019-01-26T05:51:45.354Z,21.60
2019-01-26T05:52:45.364Z,20.90
2019-01-26T05:52:48.554Z,18.10
2019-01-26T05:53:45.375Z,19.70
2019-01-26T05:54:45.399Z,17.80
2019-01-26T05:55:16.285Z,18.23
2019-01-26T05:55:45.417Z,18.10
2019-01-26T05:56:45.423Z,16.60
2019-01-26T05:57:44.089Z,17.30
2019-01-26T05:57:45.483Z,17.80
2019-01-26T05:58:45.460Z,18.90
2019-01-26T05:59:45.466Z,17.30
2019-01-26T06:00:13.795Z,18.50
2019-01-26T06:00:45.504Z,19.90
2019-01-26T06:01:45.493Z,19.90
2019-01-26T06:02:41.867Z,16.17
2019-01-26T06:02:45.557Z,19.10
2019-01-26T06:03:45.527Z,19.40
2019-01-26T06:04:45.575Z,18.60
2019-01-26T06:05:09.647Z,16.00
2019-01-26T06:05:45.581Z,18.50
2019-01-26T06:06:45.573Z,18.10
2019-01-26T06:07:39.979Z,16.63
2019-01-26T06:07:45.610Z,18.60
2019-01-26T06:08:45.600Z,18.10
2019-01-26T06:09:45.646Z,19.00
2019-01-26T06:10:07.881Z,18.30
2019-01-26T06:10:45.627Z,21.10
2019-01-26T06:11:45.654Z,22.80
2019-01-26T06:12:35.791Z,17.67
2019-01-26T06:12:45.655Z,17.50
2019-01-26T06:13:45.683Z,19.60
2019-01-26T06:14:45.680Z,23.20
2019-01-26T06:15:04.528Z,19.03
2019-01-26T06:15:45.734Z,18.70
2019-01-26T06:16:45.721Z,16.70
2019-01-26T06:17:32.329Z,18.80
2019-01-26T06:17:45.753Z,21.40
2019-01-26T06:18:45.742Z,18.90
2019-01-26T06:19:45.772Z,18.70
2019-01-26T06:20:00.183Z,20.47
2019-01-26T06:20:45.765Z,46.30
2019-01-26T06:21:45.801Z,23.00
2019-01-26T06:22:27.957Z,21.40
2019-01-26T06:22:45.829Z,30.50
2019-01-26T06:23:46.823Z,26.60
2019-01-26T06:24:45.835Z,33.00
2019-01-26T06:24:55.832Z,22.53
2019-01-26T06:25:45.873Z,32.40
2019-01-26T06:26:45.864Z,34.70
2019-01-26T06:27:25.223Z,23.10
2019-01-26T06:27:45.879Z,29.50
2019-01-26T06:28:45.897Z,29.90
2019-01-26T06:29:45.913Z,35.40
2019-01-26T06:29:53.290Z,23.70
2019-01-26T06:30:45.921Z,35.50
2019-01-26T06:31:45.924Z,31.20
2019-01-26T06:32:21.154Z,31.13
2019-01-26T06:32:45.967Z,34.10
2019-01-26T06:33:45.971Z,33.50
2019-01-26T06:34:45.979Z,41.30
2019-01-26T06:34:50.191Z,37.97
2019-01-26T06:35:45.997Z,55.50
2019-01-26T06:36:46.000Z,36.50
2019-01-26T06:37:18.219Z,32.10
2019-01-26T06:37:46.041Z,40.50
2019-01-26T06:38:46.039Z,41.30
2019-01-26T06:39:46.047Z,36.50
2019-01-26T06:39:46.093Z,20.10
2019-01-26T06:40:46.058Z,34.30
2019-01-26T06:41:46.070Z,37.40
2019-01-26T06:42:13.816Z,27.70
2019-01-26T06:42:46.091Z,78.40
2019-01-26T06:43:46.105Z,48.60
2019-01-26T06:44:41.820Z,23.20
2019-01-26T06:44:46.113Z,44.40
2019-01-26T06:45:46.134Z,36.80
2019-01-26T06:46:46.234Z,50.90
2019-01-26T06:47:09.751Z,25.23
2019-01-26T06:47:46.183Z,72.20
2019-01-26T06:48:46.181Z,44.90
2019-01-26T06:49:37.544Z,24.33
2019-01-26T06:49:46.270Z,42.10
2019-01-26T06:50:46.270Z,40.40
2019-01-26T06:51:46.256Z,45.80
2019-01-26T06:52:05.868Z,23.67
2019-01-26T06:52:46.229Z,46.80
2019-01-26T06:53:46.262Z,45.10
2019-01-26T06:54:33.795Z,27.50
2019-01-26T06:54:46.279Z,48.00
2019-01-26T06:55:46.266Z,54.70
2019-01-26T06:56:46.290Z,35.70
2019-01-26T06:57:01.591Z,18.10
2019-01-26T06:57:46.305Z,30.70
2019-01-26T06:58:46.322Z,30.40
2019-01-26T06:59:29.212Z,20.40
2019-01-26T06:59:46.334Z,34.50
2019-01-26T07:00:46.371Z,35.60
2019-01-26T07:01:46.367Z,45.80
2019-01-26T07:01:57.196Z,27.33
2019-01-26T07:02:46.416Z,34.60
2019-01-26T07:03:46.431Z,34.70
2019-01-26T07:04:35.594Z,22.00
2019-01-26T07:04:46.424Z,28.20
2019-01-26T07:05:46.424Z,25.70
2019-01-26T07:06:46.447Z,30.30
2019-01-26T07:07:08.678Z,19.13
2019-01-26T07:07:46.440Z,25.80
2019-01-26T07:08:46.457Z,19.90
2019-01-26T07:09:36.442Z,13.43
2019-01-26T07:09:46.482Z,21.80
2019-01-26T07:10:46.490Z,20.10
2019-01-26T07:11:46.536Z,16.60
2019-01-26T07:12:04.305Z,13.73
2019-01-26T07:12:46.516Z,16.20
2019-01-26T07:13:46.560Z,16.10
2019-01-26T07:14:31.992Z,12.43
2019-01-26T07:14:46.540Z,16.10
2019-01-26T07:15:46.577Z,15.70
2019-01-26T07:16:46.617Z,15.30
2019-01-26T07:16:59.729Z,13.87
2019-01-26T07:17:46.594Z,13.60
2019-01-26T07:18:46.665Z,13.80
2019-01-26T07:19:27.355Z,10.00
2019-01-26T07:19:46.623Z,11.40
2019-01-26T07:20:46.643Z,11.60
2019-01-26T07:21:46.643Z,11.80
2019-01-26T07:21:55.171Z,11.93
2019-01-26T07:22:46.716Z,10.60
2019-01-26T07:23:46.702Z,11.10
2019-01-26T07:24:23.033Z,10.10
2019-01-26T07:24:46.698Z,12.10
2019-01-26T07:25:46.720Z,15.90
2019-01-26T07:26:46.740Z,9.50
2019-01-26T07:26:50.901Z,9.37
2019-01-26T07:27:46.756Z,10.40
2019-01-26T07:28:46.768Z,10.40
2019-01-26T07:29:18.956Z,10.20
2019-01-26T07:29:46.766Z,13.90
2019-01-26T07:30:46.780Z,11.20
2019-01-26T07:31:46.824Z,12.00
2019-01-26T07:31:47.052Z,9.47
2019-01-26T07:32:46.831Z,12.20
2019-01-26T07:33:46.815Z,12.40
2019-01-26T07:34:15.198Z,9.17
2019-01-26T07:34:46.837Z,13.10
2019-01-26T07:35:46.877Z,10.90
2019-01-26T07:36:42.804Z,11.73
2019-01-26T07:36:46.881Z,11.20
2019-01-26T07:37:46.898Z,12.80
2019-01-26T07:38:46.901Z,11.70
2019-01-26T07:39:10.538Z,11.07
2019-01-26T07:39:46.917Z,13.00
2019-01-26T07:40:46.942Z,14.00
2019-01-26T07:41:38.394Z,10.87
2019-01-26T07:41:46.945Z,12.20
2019-01-26T07:42:46.973Z,11.30
2019-01-26T07:43:47.025Z,12.50
2019-01-26T07:44:06.272Z,9.47
2019-01-26T07:44:46.995Z,10.40
2019-01-26T07:45:47.019Z,11.60
2019-01-26T07:46:34.147Z,10.93
2019-01-26T07:46:47.019Z,10.70
2019-01-26T07:47:47.059Z,9.70
2019-01-26T07:48:47.060Z,9.60
2019-01-26T07:49:01.984Z,11.50
2019-01-26T07:49:47.066Z,11.80
2019-01-26T07:50:47.086Z,10.30
2019-01-26T07:51:29.773Z,10.20
2019-01-26T07:51:47.098Z,11.10
2019-01-26T07:52:47.155Z,10.10
2019-01-26T07:53:47.360Z,10.60
2019-01-26T07:53:57.419Z,9.47
2019-01-26T07:54:47.143Z,10.40
2019-01-26T07:55:47.203Z,9.90
2019-01-26T07:56:25.273Z,10.30
2019-01-26T07:56:47.188Z,10.50
2019-01-26T07:57:47.218Z,9.90
2019-01-26T07:58:47.280Z,12.30
2019-01-26T07:58:53.269Z,10.13
2019-01-26T07:59:47.227Z,9.80
2019-01-26T08:00:47.241Z,16.40
2019-01-26T08:01:20.962Z,13.67
2019-01-26T08:01:47.248Z,15.60
2019-01-26T08:02:47.281Z,16.60
2019-01-26T08:03:47.304Z,15.30
2019-01-26T08:03:48.965Z,12.00
2019-01-26T08:04:47.311Z,14.70
2019-01-26T08:05:47.347Z,12.10
2019-01-26T08:06:16.850Z,10.97
2019-01-26T08:06:47.355Z,13.50
2019-01-26T08:07:47.374Z,12.40
2019-01-26T08:08:44.902Z,11.43
2019-01-26T08:08:47.359Z,13.40
2019-01-26T08:09:47.380Z,13.50
2019-01-26T08:10:47.395Z,15.00
2019-01-26T08:11:12.606Z,12.43
2019-01-26T08:11:47.429Z,16.00
2019-01-26T08:12:47.466Z,15.10
2019-01-26T08:13:41.855Z,11.93
2019-01-26T08:13:47.439Z,17.30
2019-01-26T08:14:47.451Z,15.10
2019-01-26T08:15:47.526Z,17.30
2019-01-26T08:16:09.627Z,13.43
2019-01-26T08:16:47.539Z,20.70
2019-01-26T08:17:47.537Z,17.50
2019-01-26T08:18:37.901Z,13.37
2019-01-26T08:18:47.518Z,15.20
2019-01-26T08:19:47.567Z,16.30
2019-01-26T08:20:47.577Z,16.80
2019-01-26T08:21:05.808Z,12.03
2019-01-26T08:21:47.576Z,15.20
2019-01-26T08:22:47.655Z,15.80
2019-01-26T08:23:34.247Z,12.87
2019-01-26T08:23:47.596Z,16.30
2019-01-26T08:24:47.679Z,14.70
2019-01-26T08:25:47.626Z,16.00
2019-01-26T08:26:02.243Z,13.17
2019-01-26T08:26:47.651Z,16.00
2019-01-26T08:27:47.687Z,12.70
2019-01-26T08:28:30.544Z,11.10
2019-01-26T08:28:47.694Z,15.40
2019-01-26T08:29:47.824Z,14.10
2019-01-26T08:30:47.715Z,14.00
2019-01-26T08:30:58.449Z,11.17
2019-01-26T08:31:47.726Z,16.30
2019-01-26T08:32:47.731Z,15.90
2019-01-26T08:33:26.344Z,10.20
2019-01-26T08:33:47.756Z,15.20
2019-01-26T08:34:47.775Z,14.50
2019-01-26T08:35:47.784Z,14.00
2019-01-26T08:35:54.184Z,10.73
2019-01-26T08:36:47.871Z,13.70
2019-01-26T08:37:47.821Z,14.20
2019-01-26T08:38:22.191Z,10.97
2019-01-26T08:38:47.836Z,14.70
2019-01-26T08:39:47.869Z,13.30
2019-01-26T08:40:47.873Z,13.50
2019-01-26T08:40:50.017Z,10.00
2019-01-26T08:41:47.890Z,13.70
2019-01-26T08:42:47.897Z,12.70
2019-01-26T08:43:18.030Z,10.37
2019-01-26T08:43:47.910Z,12.90
2019-01-26T08:44:47.925Z,14.80
2019-01-26T08:45:45.830Z,13.27
2019-01-26T08:45:47.949Z,16.30
2019-01-26T08:46:47.957Z,15.60
2019-01-26T08:47:48.018Z,14.20
2019-01-26T08:48:13.536Z,9.20
2019-01-26T08:48:47.979Z,13.60
2019-01-26T08:49:47.998Z,12.90
2019-01-26T08:50:41.207Z,10.97
2019-01-26T08:50:48.016Z,13.70
2019-01-26T08:51:48.053Z,14.70
2019-01-26T08:52:48.089Z,14.10
2019-01-26T08:53:08.935Z,11.30
2019-01-26T08:53:48.074Z,15.60
2019-01-26T08:54:48.084Z,13.70
2019-01-26T08:55:37.530Z,9.53
2019-01-26T08:55:48.107Z,13.20
2019-01-26T08:56:48.141Z,12.90
2019-01-26T08:57:48.125Z,11.40
2019-01-26T08:58:05.379Z,10.60
2019-01-26T08:58:48.158Z,11.90
2019-01-26T08:59:48.219Z,14.30
2019-01-26T09:00:33.508Z,11.07
2019-01-26T09:00:48.176Z,13.40
2019-01-26T09:01:48.205Z,15.30
2019-01-26T09:02:48.216Z,17.30
2019-01-26T09:03:20.681Z,11.93
2019-01-26T09:03:48.249Z,15.30
2019-01-26T09:04:48.234Z,13.30
2019-01-26T09:05:48.273Z,13.00
2019-01-26T09:06:13.429Z,9.70
2019-01-26T09:06:48.264Z,9.90
2019-01-26T09:07:48.306Z,11.00
2019-01-26T09:08:41.694Z,10.63
2019-01-26T09:08:48.357Z,9.80
2019-01-26T09:09:48.343Z,11.10
2019-01-26T09:10:48.334Z,10.20
2019-01-26T09:11:09.387Z,8.83
2019-01-26T09:11:48.353Z,11.50